< Typhoon 199704 1997 Season Typhoon 199706 >
Typhoon 199705 (MARIE)
General InformationTrack Information on Google MapsDetailed Wind InformationList of All Images || Disaster Info.ResourceGoogle EarthGE AnimationAtom FeedGeoJSON
Detalied Best Track (Time Zone = UTC)
Year Month Day Hour Lat. Long. Pressure (hPa) Wind (kt) Class Image Chart
1997 5 27 18 11.7 156.4 1002 0 2 Image Chart
1997 5 28 00 12.6 157.6 1002 0 2 Image Chart
1997 5 28 06 13.0 158.0 1002 0 2 Image Chart
1997 5 28 12 13.0 158.0 1002 0 2 Image Chart
1997 5 28 18 13.5 158.4 1002 0 2 Image Chart
1997 5 29 00 14.2 158.8 998 35 3 Image Chart
1997 5 29 06 14.8 159.0 996 35 3 Image Chart
1997 5 29 12 15.7 159.3 994 40 3 Image Chart
1997 5 29 18 16.6 159.5 990 40 3 Image Chart
1997 5 30 00 17.6 159.8 985 45 3 Image Chart
1997 5 30 06 18.5 160.0 980 50 4 Image Chart
1997 5 30 12 19.6 160.1 975 55 4 Image Chart
1997 5 30 18 20.9 160.2 970 60 4 Image Chart
1997 5 31 00 22.0 160.3 965 65 5 Image Chart
1997 5 31 06 23.0 160.8 965 65 5 Image Chart
1997 5 31 12 24.0 161.6 965 65 5 Image Chart
1997 5 31 18 25.2 162.7 970 60 4 Image Chart
1997 6 1 00 26.3 164.2 975 55 4 Image Chart
1997 6 1 06 27.4 165.9 980 50 4 Image Chart
1997 6 1 12 28.7 168.3 985 45 3 Image Chart
1997 6 1 18 29.9 171.1 990 40 3 Image Chart
1997 6 2 00 31.9 174.7 996 0 6 Image Chart
1997 6 2 06 34.4 177.4 1000 0 6 Image Chart
1997 6 2 12 36.3 181.0 1000 0 6 Image Chart
Japan Meteorological Agency Best Track Data | Correction Date : 1998-01-19
< Typhoon 199704 1997 Season Typhoon 199706 >

Help